createdAt,value
2022-10-08T00:00:53.292Z,18.24
2022-10-08T00:03:21.527Z,18.25
2022-10-08T00:05:59.679Z,18.30
2022-10-08T00:08:27.923Z,18.29
2022-10-08T00:11:00.625Z,18.28
2022-10-08T00:13:29.175Z,18.21
2022-10-08T00:15:56.900Z,18.10
2022-10-08T00:18:23.489Z,17.95
2022-10-08T00:20:50.172Z,17.96
2022-10-08T00:23:17.045Z,18.00
2022-10-08T00:25:44.825Z,18.03
2022-10-08T00:28:13.585Z,18.01
2022-10-08T00:30:41.485Z,18.01
2022-10-08T00:33:08.845Z,18.07
2022-10-08T00:35:43.017Z,18.15
2022-10-08T00:38:09.944Z,18.08
2022-10-08T00:40:44.357Z,17.89
2022-10-08T00:43:16.367Z,17.81
2022-10-08T00:45:46.492Z,17.90
2022-10-08T00:48:20.935Z,17.91
2022-10-08T00:50:48.051Z,17.93
2022-10-08T00:53:14.904Z,17.98
2022-10-08T00:55:43.925Z,18.01
2022-10-08T00:58:19.486Z,18.01
2022-10-08T01:00:48.206Z,17.99
2022-10-08T01:03:15.219Z,17.99
2022-10-08T01:06:16.863Z,18.00
2022-10-08T01:08:54.594Z,17.96
2022-10-08T01:11:47.565Z,17.92
2022-10-08T01:14:23.098Z,17.88
2022-10-08T01:17:08.265Z,17.83
2022-10-08T01:20:04.808Z,17.77
2022-10-08T01:22:51.783Z,17.74
2022-10-08T01:25:34.061Z,17.74
2022-10-08T01:28:12.935Z,17.76
2022-10-08T01:30:45.415Z,17.76
2022-10-08T01:33:17.889Z,17.76
2022-10-08T01:35:50.761Z,17.71
2022-10-08T01:38:20.658Z,17.70
2022-10-08T01:40:48.314Z,17.69
2022-10-08T01:43:19.020Z,17.73
2022-10-08T01:45:52.041Z,17.75
2022-10-08T01:48:25.681Z,17.74
2022-10-08T01:50:55.334Z,17.72
2022-10-08T01:53:25.828Z,17.77
2022-10-08T01:55:54.887Z,17.80
2022-10-08T01:58:48.370Z,17.78
2022-10-08T02:01:27.730Z,17.66
2022-10-08T02:04:13.239Z,17.54
2022-10-08T02:06:45.352Z,17.36
2022-10-08T02:09:11.916Z,17.26
2022-10-08T02:11:38.467Z,17.23
2022-10-08T02:14:06.128Z,17.26
2022-10-08T02:16:34.366Z,17.32
2022-10-08T02:19:11.747Z,17.35
2022-10-08T02:21:41.062Z,17.34
2022-10-08T02:24:16.928Z,17.37
2022-10-08T02:26:49.303Z,17.29
2022-10-08T02:29:25.757Z,17.23
2022-10-08T02:31:58.172Z,17.21
2022-10-08T02:34:48.061Z,17.24
2022-10-08T02:37:21.836Z,17.19
2022-10-08T02:39:56.832Z,17.19
2022-10-08T02:42:25.639Z,17.14
2022-10-08T02:44:58.820Z,17.03
2022-10-08T02:47:29.192Z,16.94
2022-10-08T02:50:03.658Z,16.94
2022-10-08T02:52:36.951Z,16.92
2022-10-08T02:55:11.279Z,16.91
2022-10-08T02:57:45.800Z,16.90
2022-10-08T03:00:13.053Z,16.85
2022-10-08T03:02:47.242Z,16.81
2022-10-08T03:05:19.000Z,16.71
2022-10-08T03:07:47.804Z,16.64
2022-10-08T03:10:14.455Z,16.61
2022-10-08T03:12:41.149Z,16.60
2022-10-08T03:15:11.325Z,16.64
2022-10-08T03:17:42.028Z,16.67
2022-10-08T03:20:11.412Z,16.67
2022-10-08T03:22:38.688Z,16.66
2022-10-08T03:25:05.693Z,16.67
2022-10-08T03:27:32.336Z,16.67
2022-10-08T03:29:58.845Z,16.62
2022-10-08T03:32:26.506Z,16.56
2022-10-08T03:34:53.894Z,16.50
2022-10-08T03:37:20.859Z,16.42
2022-10-08T03:39:47.445Z,16.36
2022-10-08T03:42:14.080Z,16.33
2022-10-08T03:44:40.806Z,16.28
2022-10-08T03:47:07.401Z,16.24
2022-10-08T03:49:34.027Z,16.22
2022-10-08T03:52:00.747Z,16.20
2022-10-08T03:54:27.357Z,16.14
2022-10-08T03:56:54.077Z,16.10
2022-10-08T03:59:20.669Z,16.06
2022-10-08T04:01:47.288Z,16.00
2022-10-08T04:04:13.904Z,15.97
2022-10-08T04:06:40.476Z,15.96
2022-10-08T04:09:07.060Z,15.96
2022-10-08T04:11:33.610Z,15.96
2022-10-08T04:14:00.641Z,16.02
2022-10-08T04:16:27.299Z,16.02
2022-10-08T04:18:53.863Z,16.01
2022-10-08T04:21:20.857Z,15.98
2022-10-08T04:23:49.654Z,16.00
2022-10-08T04:26:16.795Z,15.99
2022-10-08T04:28:44.855Z,16.02
2022-10-08T04:31:17.356Z,16.05
2022-10-08T04:33:45.280Z,16.09
2022-10-08T04:36:14.620Z,16.12
2022-10-08T04:38:43.253Z,16.14
2022-10-08T04:41:11.448Z,16.14
2022-10-08T04:43:39.549Z,16.16
2022-10-08T04:46:08.880Z,16.14
2022-10-08T04:48:35.649Z,16.10
2022-10-08T04:51:09.387Z,16.10
2022-10-08T04:53:37.542Z,16.09
2022-10-08T04:56:17.091Z,16.11
2022-10-08T04:58:43.995Z,16.08
2022-10-08T05:01:13.173Z,16.07
2022-10-08T05:03:42.653Z,16.05
2022-10-08T05:06:09.953Z,16.05
2022-10-08T05:08:37.301Z,15.98
2022-10-08T05:11:04.427Z,15.95
2022-10-08T05:13:31.013Z,15.94
2022-10-08T05:16:09.898Z,15.92
2022-10-08T05:18:37.576Z,15.87
2022-10-08T05:21:10.084Z,15.82
2022-10-08T05:23:37.382Z,15.77
2022-10-08T05:26:46.480Z,15.74
2022-10-08T05:29:14.810Z,15.65
2022-10-08T05:31:41.369Z,15.61
2022-10-08T05:34:08.005Z,15.59
2022-10-08T05:36:35.136Z,15.59
2022-10-08T05:39:04.662Z,15.61
2022-10-08T05:41:34.535Z,15.62
2022-10-08T05:44:04.447Z,15.62
2022-10-08T05:46:33.701Z,15.61
2022-10-08T05:49:03.050Z,15.59
2022-10-08T05:51:30.206Z,15.58
2022-10-08T05:53:59.306Z,15.59
2022-10-08T05:56:27.344Z,15.60
2022-10-08T05:58:54.776Z,15.62
2022-10-08T06:01:24.366Z,15.69
2022-10-08T06:03:55.382Z,15.71
2022-10-08T06:06:23.053Z,15.74
2022-10-08T06:08:58.671Z,15.75
2022-10-08T06:11:26.282Z,15.73
2022-10-08T06:13:54.318Z,15.73
2022-10-08T06:16:22.112Z,15.75
2022-10-08T06:18:48.807Z,15.75
2022-10-08T06:21:21.689Z,15.76
2022-10-08T06:23:50.993Z,15.76
2022-10-08T06:26:18.896Z,15.74
2022-10-08T06:28:46.065Z,15.75
2022-10-08T06:31:12.980Z,15.74
2022-10-08T06:33:39.829Z,15.73
2022-10-08T06:36:21.153Z,15.75
2022-10-08T06:38:57.313Z,15.79
2022-10-08T06:41:24.802Z,15.83
2022-10-08T06:43:51.421Z,15.83
2022-10-08T06:46:18.874Z,15.84
2022-10-08T06:48:46.442Z,15.88
2022-10-08T06:51:16.025Z,15.91
2022-10-08T06:53:43.488Z,15.92
2022-10-08T06:56:14.433Z,15.89
2022-10-08T06:58:43.686Z,15.87
2022-10-08T07:01:21.867Z,15.88
2022-10-08T07:03:53.311Z,15.90
2022-10-08T07:06:20.201Z,15.92
2022-10-08T07:08:46.932Z,15.96
2022-10-08T07:11:16.367Z,16.00
2022-10-08T07:13:43.558Z,16.05
2022-10-08T07:16:20.735Z,16.10
2022-10-08T07:18:52.117Z,16.11
2022-10-08T07:21:21.040Z,16.15
2022-10-08T07:23:47.822Z,16.14
2022-10-08T07:26:20.203Z,16.11
2022-10-08T07:28:55.711Z,16.11
2022-10-08T07:31:28.230Z,16.10
2022-10-08T07:33:56.206Z,16.14
2022-10-08T07:36:24.223Z,16.18
2022-10-08T07:38:55.532Z,16.18
2022-10-08T07:41:22.628Z,16.20
2022-10-08T07:43:53.680Z,16.23
2022-10-08T07:46:20.932Z,16.27
2022-10-08T07:48:47.885Z,16.31
2022-10-08T07:51:19.487Z,16.37
2022-10-08T07:53:46.347Z,16.40
2022-10-08T07:56:14.985Z,16.51
2022-10-08T07:58:42.299Z,16.61
2022-10-08T08:01:12.779Z,16.66
2022-10-08T08:03:39.537Z,16.82
2022-10-08T08:06:10.473Z,17.07
2022-10-08T08:08:38.492Z,17.23
2022-10-08T08:11:06.805Z,17.43
2022-10-08T08:13:37.309Z,17.87
2022-10-08T08:16:07.833Z,18.39
2022-10-08T08:18:40.034Z,18.84
2022-10-08T08:21:09.785Z,19.02
2022-10-08T08:23:38.953Z,19.05
2022-10-08T08:26:33.044Z,19.04
2022-10-08T08:29:03.858Z,18.95
2022-10-08T08:31:32.675Z,18.72
2022-10-08T08:34:02.319Z,18.48
2022-10-08T08:36:37.280Z,18.34
2022-10-08T08:39:04.982Z,18.18
2022-10-08T08:41:47.482Z,18.04
2022-10-08T08:44:16.885Z,17.96
2022-10-08T08:47:02.215Z,17.95
2022-10-08T08:49:35.040Z,17.94
2022-10-08T08:52:05.228Z,17.95
2022-10-08T08:54:38.064Z,17.97
2022-10-08T08:57:36.308Z,17.97
2022-10-08T09:00:28.124Z,17.95
2022-10-08T09:03:05.298Z,17.89
2022-10-08T09:05:39.450Z,17.92
2022-10-08T09:08:33.800Z,17.97
2022-10-08T09:11:02.996Z,18.00
2022-10-08T09:13:47.524Z,18.04
2022-10-08T09:16:15.229Z,18.07
2022-10-08T09:18:51.967Z,18.13
2022-10-08T09:21:19.747Z,18.15
2022-10-08T09:23:47.609Z,18.18
2022-10-08T09:26:17.127Z,18.30
2022-10-08T09:28:44.665Z,18.64
2022-10-08T09:31:22.525Z,19.45
2022-10-08T09:34:10.722Z,20.60
2022-10-08T09:36:44.185Z,21.47
2022-10-08T09:39:27.196Z,21.75
2022-10-08T09:42:15.364Z,21.64
2022-10-08T09:44:45.035Z,21.67
2022-10-08T09:47:14.695Z,22.31
2022-10-08T09:49:41.315Z,22.95
2022-10-08T09:52:17.533Z,24.62
2022-10-08T09:54:48.994Z,25.64
2022-10-08T09:57:21.429Z,26.59
2022-10-08T09:59:52.951Z,27.16
2022-10-08T10:02:26.646Z,27.77
2022-10-08T10:04:55.112Z,27.02
2022-10-08T10:07:23.302Z,26.22
2022-10-08T10:09:55.980Z,27.31
2022-10-08T10:12:33.118Z,29.90
2022-10-08T10:15:04.617Z,30.86
2022-10-08T10:17:44.693Z,29.98
2022-10-08T10:20:17.993Z,28.99
2022-10-08T10:22:55.014Z,27.88
2022-10-08T10:25:47.884Z,26.77
2022-10-08T10:28:34.677Z,25.50
2022-10-08T10:31:10.701Z,24.50
2022-10-08T10:34:13.170Z,23.84
2022-10-08T10:36:45.689Z,23.35
2022-10-08T10:39:49.564Z,22.79
2022-10-08T10:42:43.743Z,22.16
2022-10-08T10:45:22.942Z,21.72
2022-10-08T10:47:53.390Z,21.32
2022-10-08T10:50:37.278Z,21.03
2022-10-08T10:53:25.163Z,21.00
2022-10-08T10:56:12.723Z,21.16
2022-10-08T10:58:52.873Z,21.57
2022-10-08T11:01:45.349Z,21.81
2022-10-08T11:04:41.101Z,21.93
2022-10-08T11:07:38.988Z,21.74
2022-10-08T11:10:43.157Z,21.53
2022-10-08T11:13:36.523Z,21.78
2022-10-08T11:16:25.102Z,22.19
2022-10-08T11:18:54.872Z,22.03
2022-10-08T11:22:12.594Z,21.56
2022-10-08T11:24:47.829Z,21.17
2022-10-08T11:27:47.885Z,20.92
2022-10-08T11:30:22.845Z,20.56
2022-10-08T11:32:53.047Z,20.35
2022-10-08T11:35:27.149Z,20.26
2022-10-08T11:37:58.459Z,20.22
2022-10-08T11:40:28.084Z,20.17
2022-10-08T11:43:10.711Z,20.05
2022-10-08T11:45:40.159Z,19.98
2022-10-08T11:48:35.039Z,19.94
2022-10-08T11:51:20.033Z,19.93
2022-10-08T11:54:03.097Z,19.96
2022-10-08T11:56:30.880Z,19.90
2022-10-08T11:59:02.368Z,19.82
2022-10-08T12:01:28.980Z,19.84
2022-10-08T12:04:05.043Z,19.90
2022-10-08T12:06:36.783Z,19.89
2022-10-08T12:09:06.140Z,19.97
2022-10-08T12:11:32.639Z,20.10
2022-10-08T12:14:19.126Z,20.39
2022-10-08T12:16:49.168Z,20.53
2022-10-08T12:19:34.163Z,20.44
2022-10-08T12:22:18.582Z,20.33
2022-10-08T12:24:50.017Z,20.27
2022-10-08T12:27:17.273Z,20.07
2022-10-08T12:30:08.251Z,19.77
2022-10-08T12:32:43.901Z,19.55
2022-10-08T12:35:30.124Z,19.63
2022-10-08T12:38:05.632Z,19.84
2022-10-08T12:40:35.245Z,19.96
2022-10-08T12:43:34.791Z,20.05
2022-10-08T12:46:32.309Z,20.29
2022-10-08T12:49:22.185Z,20.85
2022-10-08T12:52:11.759Z,21.14
2022-10-08T12:54:45.505Z,21.21
2022-10-08T12:57:17.632Z,21.26
2022-10-08T12:59:46.457Z,21.31
2022-10-08T13:02:40.523Z,21.32
2022-10-08T13:05:27.448Z,21.25
2022-10-08T13:07:54.380Z,21.18
2022-10-08T13:10:28.256Z,21.07
2022-10-08T13:13:05.872Z,20.85
2022-10-08T13:15:34.472Z,20.59
2022-10-08T13:18:13.541Z,20.41
2022-10-08T13:20:55.579Z,20.41
2022-10-08T13:23:45.579Z,20.64
2022-10-08T13:26:42.168Z,20.81
2022-10-08T13:29:23.750Z,20.91
2022-10-08T13:31:59.550Z,21.14
2022-10-08T13:34:37.740Z,21.49
2022-10-08T13:37:25.794Z,21.59
2022-10-08T13:40:10.715Z,21.34
2022-10-08T13:42:49.481Z,21.29
2022-10-08T13:45:19.547Z,21.39
2022-10-08T13:47:46.639Z,21.10
2022-10-08T13:50:13.843Z,20.78
2022-10-08T13:52:53.589Z,20.60
2022-10-08T13:55:23.350Z,20.54
2022-10-08T13:57:50.403Z,20.62
2022-10-08T14:00:17.859Z,20.80
2022-10-08T14:02:44.524Z,21.12
2022-10-08T14:05:11.723Z,21.29
2022-10-08T14:07:39.004Z,21.44
2022-10-08T14:10:06.488Z,21.35
2022-10-08T14:12:35.036Z,21.22
2022-10-08T14:15:04.896Z,21.16
2022-10-08T14:17:32.624Z,21.13
2022-10-08T14:19:59.262Z,21.07
2022-10-08T14:22:25.850Z,20.85
2022-10-08T14:24:52.692Z,20.60
2022-10-08T14:27:19.330Z,20.22
2022-10-08T14:29:46.093Z,20.03
2022-10-08T14:32:12.811Z,19.95
2022-10-08T14:34:39.473Z,19.89
2022-10-08T14:37:06.756Z,19.86
2022-10-08T14:39:33.614Z,20.02
2022-10-08T14:42:00.298Z,20.07
2022-10-08T14:44:26.920Z,20.07
2022-10-08T14:46:53.509Z,20.21
2022-10-08T14:49:21.183Z,20.37
2022-10-08T14:51:48.279Z,20.46
2022-10-08T14:54:14.949Z,20.52
2022-10-08T14:56:42.734Z,20.53
2022-10-08T14:59:12.762Z,20.46
2022-10-08T15:01:39.869Z,20.38
2022-10-08T15:04:07.539Z,20.28
2022-10-08T15:06:34.296Z,20.12
2022-10-08T15:09:00.896Z,20.01
2022-10-08T15:11:27.575Z,19.90
2022-10-08T15:13:55.621Z,19.84
2022-10-08T15:16:22.804Z,19.71
2022-10-08T15:18:49.413Z,19.61
2022-10-08T15:21:16.175Z,19.56
2022-10-08T15:23:42.943Z,19.52
2022-10-08T15:26:14.840Z,19.47
2022-10-08T15:28:43.004Z,19.46
2022-10-08T15:31:20.539Z,19.40
2022-10-08T15:33:49.930Z,19.36
2022-10-08T15:36:24.002Z,19.31
2022-10-08T15:38:59.405Z,19.26
2022-10-08T15:41:27.624Z,19.17
2022-10-08T15:43:54.837Z,19.10
2022-10-08T15:46:22.777Z,19.04
2022-10-08T15:48:54.342Z,18.98
2022-10-08T15:51:22.369Z,18.88
2022-10-08T15:53:49.173Z,18.81
2022-10-08T15:56:16.152Z,18.76
2022-10-08T15:58:50.945Z,18.67
2022-10-08T16:01:21.425Z,18.58
2022-10-08T16:03:50.031Z,18.52
2022-10-08T16:06:19.060Z,18.48
2022-10-08T16:08:46.101Z,18.43
2022-10-08T16:11:42.158Z,18.35
2022-10-08T16:14:12.452Z,18.25
2022-10-08T16:16:39.979Z,18.19
2022-10-08T16:19:09.180Z,18.14
2022-10-08T16:21:36.331Z,18.11
2022-10-08T16:24:03.216Z,18.00
2022-10-08T16:26:31.813Z,17.94
2022-10-08T16:29:00.681Z,17.92
2022-10-08T16:31:30.660Z,17.89
2022-10-08T16:33:59.798Z,17.80
2022-10-08T16:36:28.020Z,17.74
2022-10-08T16:38:55.206Z,17.68
2022-10-08T16:41:30.763Z,17.63
2022-10-08T16:43:59.683Z,17.57
2022-10-08T16:46:30.056Z,17.54
2022-10-08T16:49:12.346Z,17.51
2022-10-08T16:51:39.476Z,17.43
2022-10-08T16:54:08.333Z,17.39
2022-10-08T16:56:37.868Z,17.36
2022-10-08T16:59:05.624Z,17.31
2022-10-08T17:01:33.875Z,17.21
2022-10-08T17:04:00.576Z,17.24
2022-10-08T17:06:28.983Z,17.29
2022-10-08T17:08:55.988Z,17.24
2022-10-08T17:11:22.772Z,17.20
2022-10-08T17:13:55.681Z,17.17
2022-10-08T17:16:24.010Z,17.12
2022-10-08T17:18:52.512Z,17.05
2022-10-08T17:21:19.652Z,16.95
2022-10-08T17:23:46.496Z,16.92
2022-10-08T17:26:16.223Z,16.90
2022-10-08T17:28:44.185Z,16.74
2022-10-08T17:31:17.025Z,16.66
2022-10-08T17:33:43.814Z,16.67
2022-10-08T17:36:15.642Z,16.70
2022-10-08T17:38:44.540Z,16.68
2022-10-08T17:41:16.539Z,16.71
2022-10-08T17:43:44.166Z,16.70
2022-10-08T17:46:19.093Z,16.68
2022-10-08T17:48:46.535Z,16.63
2022-10-08T17:51:15.976Z,16.65
2022-10-08T17:53:43.239Z,16.65
2022-10-08T17:56:12.875Z,16.66
2022-10-08T17:58:39.664Z,16.64
2022-10-08T18:01:13.522Z,16.57
2022-10-08T18:03:41.876Z,16.52
2022-10-08T18:06:09.657Z,16.46
2022-10-08T18:08:37.354Z,16.38
2022-10-08T18:11:06.528Z,16.36
2022-10-08T18:13:34.366Z,16.34
2022-10-08T18:16:08.375Z,16.35
2022-10-08T18:18:35.479Z,16.33
2022-10-08T18:21:03.359Z,16.35
2022-10-08T18:23:31.749Z,16.35
2022-10-08T18:26:17.673Z,16.35
2022-10-08T18:28:45.743Z,16.29
2022-10-08T18:31:14.267Z,16.27
2022-10-08T18:33:43.422Z,16.23
2022-10-08T18:36:22.992Z,16.22
2022-10-08T18:38:57.782Z,16.17
2022-10-08T18:41:27.382Z,16.12
2022-10-08T18:43:54.458Z,16.11
2022-10-08T18:46:22.757Z,16.06
2022-10-08T18:48:49.633Z,16.02
2022-10-08T18:51:22.362Z,16.04
2022-10-08T18:53:50.393Z,16.00
2022-10-08T18:56:25.317Z,15.99
2022-10-08T18:58:57.587Z,15.96
2022-10-08T19:01:30.342Z,15.93
2022-10-08T19:03:59.075Z,15.88
2022-10-08T19:06:29.941Z,15.86
2022-10-08T19:08:58.460Z,15.84
2022-10-08T19:11:33.067Z,15.83
2022-10-08T19:14:01.130Z,15.79
2022-10-08T19:16:28.509Z,15.76
2022-10-08T19:18:58.045Z,15.66
2022-10-08T19:21:26.245Z,15.56
2022-10-08T19:23:53.241Z,15.51
2022-10-08T19:26:20.454Z,15.43
2022-10-08T19:28:49.404Z,15.40
2022-10-08T19:31:17.097Z,15.37
2022-10-08T19:33:51.480Z,15.38
2022-10-08T19:36:20.289Z,15.36
2022-10-08T19:38:55.073Z,15.36
2022-10-08T19:41:23.531Z,15.32
2022-10-08T19:43:52.120Z,15.33
2022-10-08T19:46:19.482Z,15.33
2022-10-08T19:48:51.579Z,15.30
2022-10-08T19:51:19.468Z,15.22
2022-10-08T19:53:46.241Z,15.21
2022-10-08T19:56:13.819Z,15.19
2022-10-08T19:58:46.252Z,15.10
2022-10-08T20:01:18.192Z,14.97
2022-10-08T20:03:45.262Z,14.86
2022-10-08T20:06:23.171Z,14.75
2022-10-08T20:08:53.570Z,14.79
2022-10-08T20:11:21.167Z,14.81
2022-10-08T20:13:53.842Z,14.86
2022-10-08T20:16:28.335Z,14.93
2022-10-08T20:19:00.966Z,14.95
2022-10-08T20:21:29.455Z,14.93
2022-10-08T20:23:56.081Z,14.91
2022-10-08T20:26:28.388Z,14.90
2022-10-08T20:29:05.021Z,14.90
2022-10-08T20:31:39.443Z,14.82
2022-10-08T20:34:18.411Z,14.80
2022-10-08T20:36:46.604Z,14.72
2022-10-08T20:39:15.198Z,14.67
2022-10-08T20:41:42.512Z,14.66
2022-10-08T20:44:09.118Z,14.65
2022-10-08T20:46:36.753Z,14.64
2022-10-08T20:49:04.032Z,14.62
2022-10-08T20:51:31.723Z,14.63
2022-10-08T20:54:04.460Z,14.59
2022-10-08T20:56:37.059Z,14.56
2022-10-08T20:59:04.485Z,14.53
2022-10-08T21:01:33.954Z,14.49
2022-10-08T21:04:00.735Z,14.45
2022-10-08T21:06:36.026Z,14.41
2022-10-08T21:09:02.791Z,14.37
2022-10-08T21:11:30.331Z,14.37
2022-10-08T21:13:59.382Z,14.34
2022-10-08T21:16:28.695Z,14.29
2022-10-08T21:18:57.698Z,14.27
2022-10-08T21:21:25.718Z,14.28
2022-10-08T21:23:52.983Z,14.28
2022-10-08T21:26:25.116Z,14.31
2022-10-08T21:28:54.982Z,14.33
2022-10-08T21:31:22.044Z,14.33
2022-10-08T21:33:50.773Z,14.34
2022-10-08T21:36:22.806Z,14.32
2022-10-08T21:38:49.463Z,14.32
2022-10-08T21:41:17.504Z,14.31
2022-10-08T21:43:52.653Z,14.32
2022-10-08T21:46:24.806Z,14.31
2022-10-08T21:48:56.519Z,14.29
2022-10-08T21:51:24.564Z,14.26
2022-10-08T21:53:57.341Z,14.27
2022-10-08T21:56:26.864Z,14.23
2022-10-08T21:58:55.410Z,14.16
2022-10-08T22:01:28.215Z,14.14
2022-10-08T22:04:02.763Z,14.17
2022-10-08T22:06:31.205Z,14.19
2022-10-08T22:08:58.361Z,14.21
2022-10-08T22:11:25.378Z,14.20
2022-10-08T22:13:52.516Z,14.18
2022-10-08T22:16:21.499Z,14.15
2022-10-08T22:18:48.803Z,14.12
2022-10-08T22:21:20.908Z,14.13
2022-10-08T22:23:48.779Z,14.12
2022-10-08T22:26:19.433Z,14.11
2022-10-08T22:28:46.460Z,14.09
2022-10-08T22:31:15.285Z,14.10
2022-10-08T22:33:41.897Z,14.08
2022-10-08T22:36:13.220Z,14.02
2022-10-08T22:38:41.336Z,13.97
2022-10-08T22:41:11.811Z,13.95
2022-10-08T22:43:39.761Z,13.93
2022-10-08T22:46:12.161Z,13.93
2022-10-08T22:48:39.784Z,13.90
2022-10-08T22:51:11.547Z,13.90
2022-10-08T22:53:38.847Z,13.87
2022-10-08T22:56:07.842Z,13.84
2022-10-08T22:58:35.418Z,13.78
2022-10-08T23:01:07.288Z,13.72
2022-10-08T23:03:34.501Z,13.69
2022-10-08T23:06:16.321Z,13.66
2022-10-08T23:08:44.424Z,13.58
2022-10-08T23:11:11.566Z,13.55
2022-10-08T23:13:38.480Z,13.55
2022-10-08T23:16:10.519Z,13.56
2022-10-08T23:18:39.661Z,13.55
2022-10-08T23:21:09.066Z,13.56
2022-10-08T23:23:36.346Z,13.56
2022-10-08T23:26:06.731Z,13.55
2022-10-08T23:28:35.206Z,13.53
2022-10-08T23:31:14.423Z,13.48
2022-10-08T23:33:43.698Z,13.43
2022-10-08T23:36:12.530Z,13.39
2022-10-08T23:38:39.135Z,13.36
2022-10-08T23:41:07.649Z,13.33
2022-10-08T23:43:36.145Z,13.32
2022-10-08T23:46:03.421Z,13.29
2022-10-08T23:48:30.010Z,13.23
2022-10-08T23:50:57.065Z,13.20
2022-10-08T23:53:23.901Z,13.28
2022-10-08T23:55:50.963Z,13.29
2022-10-08T23:58:17.980Z,13.24
